createdAt,value
2019-05-10T00:02:41.414Z,100.00
2019-05-10T00:05:29.596Z,100.00
2019-05-10T00:08:17.812Z,100.00
2019-05-10T00:16:17.015Z,100.00
2019-05-10T00:18:46.265Z,100.00
2019-05-10T00:21:34.600Z,100.00
2019-05-10T00:24:03.875Z,100.00
2019-05-10T00:26:33.174Z,100.00
2019-05-10T00:29:02.530Z,100.00
2019-05-10T00:31:31.773Z,100.00
2019-05-10T00:34:01.085Z,100.00
2019-05-10T00:36:30.416Z,100.00
2019-05-10T00:38:59.710Z,100.00
2019-05-10T00:41:29.002Z,100.00
2019-05-10T00:43:58.302Z,100.00
2019-05-10T00:46:27.577Z,100.00
2019-05-10T00:48:56.856Z,100.00
2019-05-10T00:51:26.132Z,100.00
2019-05-10T00:53:55.421Z,100.00
2019-05-10T00:56:24.701Z,100.00
2019-05-10T00:59:05.144Z,100.00
2019-05-10T01:01:46.334Z,100.00
2019-05-10T01:04:15.614Z,100.00
2019-05-10T01:07:03.994Z,100.00
2019-05-10T01:12:40.571Z,100.00
2019-05-10T01:18:10.775Z,100.00
2019-05-10T01:20:40.060Z,100.00
2019-05-10T01:23:09.364Z,100.00
2019-05-10T01:25:49.998Z,100.00
2019-05-10T01:28:19.290Z,100.00
2019-05-10T01:30:48.665Z,100.00
2019-05-10T01:33:17.921Z,100.00
2019-05-10T01:35:47.206Z,100.00
2019-05-10T01:38:16.510Z,100.00
2019-05-10T01:40:45.794Z,100.00
2019-05-10T01:43:15.090Z,100.00
2019-05-10T01:45:44.379Z,100.00
2019-05-10T01:48:13.715Z,100.00
2019-05-10T01:50:43.599Z,100.00
2019-05-10T01:53:12.860Z,100.00
2019-05-10T01:55:51.787Z,100.00
2019-05-10T01:58:13.150Z,100.00
2019-05-10T02:00:42.481Z,100.00
2019-05-10T02:03:11.760Z,100.00
2019-05-10T02:05:41.042Z,100.00
2019-05-10T02:08:10.332Z,100.00
2019-05-10T02:10:39.925Z,100.00
2019-05-10T02:13:09.303Z,100.00
2019-05-10T02:18:13.902Z,100.00
2019-05-10T02:20:43.227Z,100.00
2019-05-10T02:23:12.462Z,100.00
2019-05-10T02:25:41.757Z,100.00
2019-05-10T02:28:11.042Z,100.00
2019-05-10T02:30:40.340Z,100.00
2019-05-10T02:33:09.614Z,100.00
2019-05-10T02:35:38.889Z,100.00
2019-05-10T02:38:08.176Z,100.00
2019-05-10T02:40:37.453Z,100.00
2019-05-10T02:43:06.737Z,100.00
2019-05-10T02:45:36.061Z,100.00
2019-05-10T02:48:05.446Z,100.00
2019-05-10T02:50:34.817Z,100.00
2019-05-10T02:53:04.199Z,100.00
2019-05-10T02:56:29.149Z,100.00
2019-05-10T03:04:40.728Z,100.00
2019-05-10T03:07:10.007Z,100.00
2019-05-10T03:09:39.289Z,100.00
2019-05-10T03:12:27.662Z,100.00
2019-05-10T03:15:36.813Z,100.00
2019-05-10T03:18:45.426Z,100.00
2019-05-10T03:24:28.889Z,100.00
2019-05-10T03:26:58.174Z,100.00
2019-05-10T03:29:27.568Z,100.00
2019-05-10T03:31:56.993Z,100.00
2019-05-10T03:34:26.288Z,100.00
2019-05-10T03:36:55.554Z,100.00
2019-05-10T03:39:24.862Z,100.00
2019-05-10T03:41:54.136Z,100.00
2019-05-10T03:44:23.407Z,100.00
2019-05-10T03:49:27.490Z,100.00
2019-05-10T03:51:56.831Z,100.00
2019-05-10T03:54:26.113Z,100.00
2019-05-10T03:57:12.289Z,100.00
2019-05-10T03:59:26.404Z,100.00
2019-05-10T04:01:55.695Z,100.00
2019-05-10T04:04:44.037Z,100.00
2019-05-10T04:07:13.309Z,100.00
2019-05-10T04:09:42.611Z,100.00
2019-05-10T04:12:11.894Z,100.00
2019-05-10T04:14:41.166Z,100.00
2019-05-10T04:17:29.413Z,100.00
2019-05-10T04:19:58.699Z,100.00
2019-05-10T04:22:27.983Z,100.00
2019-05-10T04:24:57.266Z,100.00
2019-05-10T04:27:32.491Z,100.00
2019-05-10T04:29:57.556Z,100.00
2019-05-10T04:32:26.840Z,100.00
2019-05-10T04:34:56.144Z,100.00
2019-05-10T04:37:25.433Z,100.00
2019-05-10T04:40:14.026Z,100.00
2019-05-10T04:42:43.345Z,100.00
2019-05-10T04:45:51.937Z,100.00
2019-05-10T04:48:21.247Z,100.00
2019-05-10T04:50:50.527Z,100.00
2019-05-10T04:53:19.825Z,100.00
2019-05-10T04:55:49.095Z,100.00
2019-05-10T04:58:18.397Z,100.00
2019-05-10T05:01:06.792Z,100.00
2019-05-10T05:03:36.038Z,100.00
2019-05-10T05:06:05.353Z,100.00
2019-05-10T05:08:34.642Z,100.00
2019-05-10T05:11:03.940Z,100.00
2019-05-10T05:13:33.227Z,100.00
2019-05-10T05:16:02.502Z,100.00
2019-05-10T05:18:31.841Z,100.00
2019-05-10T05:21:20.093Z,100.00
2019-05-10T05:24:08.326Z,100.00
2019-05-10T05:26:37.632Z,100.00
2019-05-10T05:29:06.935Z,100.00
2019-05-10T05:34:24.495Z,100.00
2019-05-10T05:36:53.806Z,100.00
2019-05-10T05:39:23.097Z,100.00
2019-05-10T05:41:56.178Z,98.74
2019-05-10T05:44:26.043Z,98.65
2019-05-10T05:46:54.539Z,97.76
2019-05-10T05:49:23.821Z,97.59
2019-05-10T05:51:53.109Z,97.51
2019-05-10T05:57:17.290Z,98.63
2019-05-10T05:59:49.050Z,97.71
2019-05-10T06:02:17.585Z,98.36
2019-05-10T06:04:47.714Z,98.80
2019-05-10T06:07:17.901Z,98.95
2019-05-10T06:09:47.217Z,98.49
2019-05-10T06:12:16.492Z,97.75
2019-05-10T06:14:49.804Z,97.01
2019-05-10T06:17:16.833Z,95.74
2019-05-10T06:19:46.106Z,96.38
2019-05-10T06:24:55.590Z,94.90
2019-05-10T06:27:24.892Z,94.89
2019-05-10T06:29:54.185Z,95.28
2019-05-10T06:32:23.504Z,94.31
2019-05-10T06:34:52.795Z,94.27
2019-05-10T06:39:57.528Z,93.66
2019-05-10T06:42:28.691Z,93.77
2019-05-10T06:44:57.900Z,92.98
2019-05-10T06:47:27.171Z,92.44
2019-05-10T06:49:59.322Z,92.88
2019-05-10T06:52:29.817Z,92.05
2019-05-10T06:54:59.693Z,91.48
2019-05-10T06:57:29.008Z,90.56
2019-05-10T07:00:17.209Z,90.93
2019-05-10T07:02:46.509Z,90.75
2019-05-10T07:05:16.496Z,90.03
2019-05-10T07:07:46.022Z,88.61
2019-05-10T07:12:50.341Z,86.70
2019-05-10T07:15:42.346Z,87.17
2019-05-10T07:18:11.018Z,88.29
2019-05-10T07:20:43.202Z,88.16
2019-05-10T07:23:11.411Z,87.28
2019-05-10T07:25:43.839Z,87.56
2019-05-10T07:28:15.994Z,86.93
2019-05-10T07:30:42.735Z,87.10
2019-05-10T07:33:12.064Z,87.29
2019-05-10T07:36:02.411Z,86.77
2019-05-10T07:38:32.949Z,84.31
2019-05-10T07:41:02.864Z,86.83
2019-05-10T07:43:32.130Z,84.11
2019-05-10T07:46:20.467Z,85.69
2019-05-10T07:48:53.411Z,85.50
2019-05-10T07:51:22.910Z,85.63
2019-05-10T07:54:10.834Z,84.47
2019-05-10T07:56:45.719Z,81.88
2019-05-10T07:59:16.335Z,85.02
2019-05-10T08:01:42.164Z,84.34
2019-05-10T08:06:51.716Z,82.54
2019-05-10T08:09:19.313Z,83.86
2019-05-10T08:11:54.016Z,81.67
2019-05-10T08:14:20.902Z,82.42
2019-05-10T08:16:58.453Z,83.24
2019-05-10T08:19:21.242Z,81.93
2019-05-10T08:21:56.446Z,82.75
2019-05-10T08:24:22.227Z,81.08
2019-05-10T08:27:11.184Z,81.98
2019-05-10T08:30:17.956Z,81.65
2019-05-10T08:32:29.937Z,82.26
2019-05-10T08:37:52.931Z,83.10
2019-05-10T08:40:28.173Z,82.76
2019-05-10T08:43:03.177Z,81.49
2019-05-10T08:45:23.859Z,81.53
2019-05-10T08:48:01.043Z,81.70
2019-05-10T08:50:42.622Z,79.13
2019-05-10T08:52:56.875Z,79.40
2019-05-10T08:55:26.293Z,80.07
2019-05-10T08:57:55.604Z,81.19
2019-05-10T09:03:18.360Z,80.95
2019-05-10T09:05:44.302Z,80.87
2019-05-10T09:08:19.510Z,80.92
2019-05-10T09:10:44.654Z,80.32
2019-05-10T09:13:14.092Z,81.10
2019-05-10T09:15:51.668Z,80.29
2019-05-10T09:18:14.414Z,80.07
2019-05-10T09:20:43.715Z,80.83
2019-05-10T09:23:18.679Z,82.45
2019-05-10T09:25:44.090Z,82.07
2019-05-10T09:28:16.648Z,83.10
2019-05-10T09:30:56.932Z,83.37
2019-05-10T09:33:15.447Z,84.05
2019-05-10T09:35:51.165Z,84.33
2019-05-10T09:38:39.205Z,85.06
2019-05-10T09:41:05.780Z,85.18
2019-05-10T09:43:42.448Z,86.11
2019-05-10T09:46:06.089Z,86.30
2019-05-10T09:48:35.415Z,86.55
2019-05-10T09:51:04.759Z,87.15
2019-05-10T09:53:34.078Z,88.80
2019-05-10T09:56:03.507Z,88.12
2019-05-10T09:58:32.745Z,88.19
2019-05-10T10:01:13.440Z,87.75
2019-05-10T10:03:39.882Z,88.30
2019-05-10T10:06:07.799Z,88.73
2019-05-10T10:08:35.171Z,89.30
2019-05-10T10:11:14.067Z,89.76
2019-05-10T10:13:43.077Z,89.85
2019-05-10T10:16:25.459Z,90.74
2019-05-10T10:18:54.752Z,91.64
2019-05-10T10:26:48.183Z,97.44
2019-05-10T10:29:18.079Z,97.42
2019-05-10T10:31:54.809Z,97.48
2019-05-10T10:34:18.412Z,97.89
2019-05-10T10:36:47.741Z,96.95
2019-05-10T10:39:17.199Z,96.87
2019-05-10T10:41:49.204Z,96.35
2019-05-10T10:44:19.064Z,97.53
2019-05-10T10:46:48.374Z,96.13
2019-05-10T10:49:17.871Z,96.75
2019-05-10T10:51:47.353Z,96.13
2019-05-10T10:56:51.894Z,96.09
2019-05-10T10:59:21.172Z,95.63
2019-05-10T11:02:16.027Z,95.06
2019-05-10T11:07:11.098Z,94.99
2019-05-10T11:15:03.580Z,94.29
2019-05-10T11:17:32.900Z,93.41
2019-05-10T11:20:02.169Z,93.52
2019-05-10T11:22:31.863Z,93.48
2019-05-10T11:25:09.154Z,93.57
2019-05-10T11:27:33.472Z,92.38
2019-05-10T11:30:02.764Z,91.89
2019-05-10T11:32:32.033Z,91.69
2019-05-10T11:35:01.302Z,89.67
2019-05-10T11:37:45.525Z,89.33
2019-05-10T11:43:17.413Z,90.38
2019-05-10T11:45:45.925Z,89.15
2019-05-10T11:48:15.233Z,89.45
2019-05-10T11:50:44.514Z,89.00
2019-05-10T11:53:32.902Z,87.42
2019-05-10T11:56:02.488Z,85.49
2019-05-10T12:01:16.364Z,87.21
2019-05-10T12:03:35.257Z,87.08
2019-05-10T12:06:08.820Z,86.45
2019-05-10T12:08:35.549Z,85.73
2019-05-10T12:11:15.695Z,86.00
2019-05-10T12:13:35.825Z,84.33
2019-05-10T12:16:05.225Z,85.34
2019-05-10T12:18:36.304Z,83.88
2019-05-10T12:21:24.543Z,84.30
2019-05-10T12:23:56.320Z,85.14
2019-05-10T12:25:59.518Z,87.88
2019-05-10T12:29:02.702Z,85.71
2019-05-10T12:31:26.925Z,84.90
2019-05-10T12:34:02.440Z,84.50
2019-05-10T12:36:27.756Z,83.41
2019-05-10T12:38:58.965Z,84.76
2019-05-10T12:41:31.459Z,85.22
2019-05-10T12:44:04.179Z,85.76
2019-05-10T12:46:31.428Z,85.38
2019-05-10T12:49:02.097Z,85.32
2019-05-10T12:54:12.929Z,85.31
2019-05-10T12:56:44.204Z,84.06
2019-05-10T12:59:13.293Z,84.82
2019-05-10T13:02:04.378Z,82.83
2019-05-10T13:04:40.498Z,83.72
2019-05-10T13:10:02.010Z,84.08
2019-05-10T13:12:22.948Z,83.86
2019-05-10T13:14:53.856Z,83.96
2019-05-10T13:17:23.150Z,84.22
2019-05-10T13:19:57.827Z,82.58
2019-05-10T13:22:42.569Z,83.08
2019-05-10T13:28:20.480Z,81.76
2019-05-10T13:30:50.078Z,81.53
2019-05-10T13:33:28.659Z,81.72
2019-05-10T13:35:55.800Z,81.74
2019-05-10T13:38:21.388Z,78.93
2019-05-10T13:40:50.708Z,78.28
2019-05-10T13:43:26.496Z,75.92
2019-05-10T13:45:51.020Z,77.12
2019-05-10T13:48:20.374Z,75.69
2019-05-10T13:50:49.670Z,77.61
2019-05-10T13:53:20.786Z,77.60
2019-05-10T13:55:50.083Z,78.31
2019-05-10T13:58:19.378Z,78.12
2019-05-10T14:00:48.695Z,78.35
2019-05-10T14:03:18.026Z,79.52
2019-05-10T14:05:47.416Z,78.71
2019-05-10T14:08:16.717Z,77.12
2019-05-10T14:13:35.586Z,77.56
2019-05-10T14:16:24.622Z,77.19
2019-05-10T14:18:53.893Z,76.78
2019-05-10T14:24:15.201Z,76.63
2019-05-10T14:26:42.572Z,75.57
2019-05-10T14:29:11.958Z,74.22
2019-05-10T14:31:41.277Z,75.54
2019-05-10T14:34:15.109Z,76.43
2019-05-10T14:37:00.463Z,77.12
2019-05-10T14:39:29.755Z,75.54
2019-05-10T14:42:02.138Z,76.27
2019-05-10T14:44:50.399Z,76.46
2019-05-10T14:47:19.770Z,77.00
2019-05-10T14:49:49.119Z,78.24
2019-05-10T14:52:18.525Z,77.59
2019-05-10T14:54:55.523Z,79.45
2019-05-10T14:57:21.839Z,79.26
2019-05-10T15:02:26.599Z,79.66
2019-05-10T15:04:56.031Z,79.29
2019-05-10T15:07:25.491Z,79.25
2019-05-10T15:10:00.275Z,80.01
2019-05-10T15:12:25.830Z,80.67
2019-05-10T15:14:55.241Z,81.23
2019-05-10T15:17:24.594Z,81.36
2019-05-10T15:19:59.906Z,82.30
2019-05-10T15:22:25.042Z,82.42
2019-05-10T15:24:54.384Z,82.51
2019-05-10T15:27:24.112Z,82.68
2019-05-10T15:29:58.749Z,82.07
2019-05-10T15:32:36.764Z,81.34
2019-05-10T15:35:08.472Z,82.32
2019-05-10T15:37:40.724Z,80.16
2019-05-10T15:43:16.450Z,80.98
2019-05-10T15:46:00.132Z,81.23
2019-05-10T15:48:29.591Z,81.80
2019-05-10T15:50:58.879Z,81.61
2019-05-10T15:53:28.223Z,81.17
2019-05-10T15:55:58.932Z,81.82
2019-05-10T15:58:30.560Z,80.99
2019-05-10T16:00:59.563Z,81.17
2019-05-10T16:03:28.956Z,80.43
2019-05-10T16:06:00.721Z,79.88
2019-05-10T16:08:30.306Z,80.25
2019-05-10T16:11:00.346Z,80.90
2019-05-10T16:13:29.674Z,80.95
2019-05-10T16:15:59.566Z,81.09
2019-05-10T16:18:33.508Z,80.77
2019-05-10T16:21:01.107Z,81.23
2019-05-10T16:23:30.393Z,81.13
2019-05-10T16:25:59.685Z,81.36
2019-05-10T16:28:28.953Z,81.28
2019-05-10T16:33:48.225Z,81.28
2019-05-10T16:36:17.572Z,81.34
2019-05-10T16:38:46.885Z,81.14
2019-05-10T16:41:16.223Z,81.56
2019-05-10T16:43:45.594Z,82.14
2019-05-10T16:46:14.967Z,82.18
2019-05-10T16:48:44.289Z,82.50
2019-05-10T16:51:13.617Z,82.94
2019-05-10T16:53:45.824Z,83.34
2019-05-10T16:56:18.998Z,83.51
2019-05-10T16:58:47.586Z,83.81
2019-05-10T17:01:18.651Z,83.89
2019-05-10T17:03:51.290Z,84.23
2019-05-10T17:06:18.311Z,84.49
2019-05-10T17:08:47.667Z,84.56
2019-05-10T17:14:05.256Z,85.12
2019-05-10T17:16:34.593Z,85.38
2019-05-10T17:19:03.981Z,85.52
2019-05-10T17:21:33.347Z,85.19
2019-05-10T17:24:02.747Z,85.75
2019-05-10T17:26:32.916Z,84.84
2019-05-10T17:29:07.144Z,85.22
2019-05-10T17:31:34.310Z,85.14
2019-05-10T17:36:38.891Z,85.25
2019-05-10T17:39:08.249Z,85.55
2019-05-10T17:41:37.545Z,85.33
2019-05-10T17:44:06.840Z,84.33
2019-05-10T17:46:36.204Z,84.28
2019-05-10T17:49:05.480Z,83.98
2019-05-10T17:51:34.779Z,84.16
2019-05-10T17:54:04.086Z,84.45
2019-05-10T17:56:38.821Z,84.91
2019-05-10T17:59:05.782Z,85.11
2019-05-10T18:01:37.626Z,84.63
2019-05-10T18:04:07.367Z,84.36
2019-05-10T18:09:25.015Z,84.01
2019-05-10T18:11:54.304Z,84.15
2019-05-10T18:14:23.587Z,84.04
2019-05-10T18:16:52.928Z,84.39
2019-05-10T18:19:24.539Z,84.87
2019-05-10T18:21:54.780Z,85.20
2019-05-10T18:24:24.324Z,84.74
2019-05-10T18:26:53.609Z,84.73
2019-05-10T18:29:22.897Z,84.91
2019-05-10T18:31:55.946Z,84.82
2019-05-10T18:34:26.440Z,84.57
2019-05-10T18:36:54.422Z,84.83
2019-05-10T18:39:47.364Z,84.78
2019-05-10T18:42:18.907Z,84.94
2019-05-10T18:44:45.751Z,84.65
2019-05-10T18:47:15.866Z,85.26
2019-05-10T18:49:45.181Z,85.19
2019-05-10T18:52:14.458Z,85.04
2019-05-10T18:54:43.765Z,84.92
2019-05-10T18:57:18.805Z,84.96
2019-05-10T18:59:45.559Z,85.23
2019-05-10T19:02:17.984Z,85.60
2019-05-10T19:04:52.049Z,85.63
2019-05-10T19:07:17.119Z,85.72
2019-05-10T19:09:46.410Z,85.95
2019-05-10T19:12:18.732Z,86.30
2019-05-10T19:14:46.786Z,86.43
2019-05-10T19:17:16.168Z,86.67
2019-05-10T19:19:45.456Z,86.83
2019-05-10T19:22:14.749Z,87.26
2019-05-10T19:24:44.041Z,86.68
2019-05-10T19:27:13.340Z,86.45
2019-05-10T19:30:01.560Z,86.03
2019-05-10T19:32:30.819Z,85.96
2019-05-10T19:35:00.098Z,85.94
2019-05-10T19:37:34.105Z,86.12
2019-05-10T19:40:00.391Z,86.16
2019-05-10T19:42:31.675Z,85.94
2019-05-10T19:45:00.707Z,86.44
2019-05-10T19:47:30.011Z,86.70
2019-05-10T19:49:59.333Z,84.93
2019-05-10T19:52:28.623Z,83.96
2019-05-10T19:54:57.931Z,83.64
2019-05-10T19:57:27.210Z,83.65
2019-05-10T19:59:56.516Z,84.24
2019-05-10T20:02:25.806Z,84.73
2019-05-10T20:04:55.091Z,84.96
2019-05-10T20:07:24.405Z,84.92
2019-05-10T20:09:53.689Z,84.95
2019-05-10T20:12:22.995Z,85.05
2019-05-10T20:14:52.281Z,85.56
2019-05-10T20:17:22.054Z,85.52
2019-05-10T20:19:52.601Z,85.58
2019-05-10T20:22:21.876Z,85.80
2019-05-10T20:24:51.262Z,85.81
2019-05-10T20:30:48.115Z,86.42
2019-05-10T20:33:17.399Z,87.01
2019-05-10T20:35:46.698Z,86.73
2019-05-10T20:38:15.990Z,86.59
2019-05-10T20:41:04.323Z,86.59
2019-05-10T20:43:33.588Z,86.66
2019-05-10T20:46:02.953Z,86.85
2019-05-10T20:48:32.249Z,87.27
2019-05-10T20:51:01.522Z,87.36
2019-05-10T20:53:30.857Z,87.08
2019-05-10T20:56:00.123Z,86.83
2019-05-10T20:58:29.405Z,87.42
2019-05-10T21:00:58.690Z,87.44
2019-05-10T21:03:39.288Z,87.22
2019-05-10T21:08:56.827Z,87.01
2019-05-10T21:11:45.002Z,87.28
2019-05-10T21:14:14.303Z,87.03
2019-05-10T21:16:43.663Z,86.99
2019-05-10T21:19:12.965Z,86.74
2019-05-10T21:21:44.742Z,87.07
2019-05-10T21:24:14.017Z,86.97
2019-05-10T21:26:43.310Z,86.84
2019-05-10T21:29:12.582Z,86.58
2019-05-10T21:31:41.892Z,86.70
2019-05-10T21:34:11.181Z,86.80
2019-05-10T21:36:40.446Z,86.67
2019-05-10T21:39:09.823Z,86.30
2019-05-10T21:41:39.039Z,86.53
2019-05-10T21:44:08.326Z,86.66
2019-05-10T21:46:37.612Z,87.29
2019-05-10T21:49:06.891Z,87.63
2019-05-10T21:54:11.018Z,87.20
2019-05-10T21:56:40.320Z,87.00
2019-05-10T22:01:57.920Z,87.39
2019-05-10T22:04:27.210Z,87.55
2019-05-10T22:07:15.442Z,87.50
2019-05-10T22:09:44.743Z,87.43
2019-05-10T22:12:14.017Z,87.56
2019-05-10T22:14:43.313Z,87.56
2019-05-10T22:17:15.077Z,87.35
2019-05-10T22:19:44.367Z,87.45
2019-05-10T22:22:13.831Z,87.80
2019-05-10T22:24:43.095Z,87.86
2019-05-10T22:27:12.396Z,88.19
2019-05-10T22:29:41.684Z,88.34
2019-05-10T22:32:10.944Z,88.52
2019-05-10T22:34:40.242Z,88.95
2019-05-10T22:37:09.518Z,89.08
2019-05-10T22:39:38.884Z,89.18
2019-05-10T22:42:08.173Z,88.87
2019-05-10T22:44:37.479Z,88.81
2019-05-10T22:47:06.755Z,88.74
2019-05-10T22:49:36.195Z,88.92
2019-05-10T22:52:05.498Z,89.08
2019-05-10T22:54:34.808Z,88.86
2019-05-10T22:57:04.100Z,89.12
2019-05-10T22:59:33.372Z,89.44
2019-05-10T23:02:02.662Z,89.60
2019-05-10T23:04:31.933Z,89.50
2019-05-10T23:07:01.235Z,89.95
2019-05-10T23:09:30.521Z,90.45
2019-05-10T23:11:59.792Z,90.21
2019-05-10T23:14:29.073Z,90.80
2019-05-10T23:16:58.344Z,90.34
2019-05-10T23:19:46.697Z,90.13
2019-05-10T23:22:15.969Z,90.13
2019-05-10T23:24:45.294Z,90.06
2019-05-10T23:29:49.709Z,90.65
2019-05-10T23:32:19.023Z,90.92
2019-05-10T23:34:48.345Z,90.86
2019-05-10T23:37:17.653Z,90.90
2019-05-10T23:39:46.962Z,91.18
2019-05-10T23:42:16.241Z,91.42
2019-05-10T23:45:04.891Z,92.36
2019-05-10T23:47:34.174Z,92.36
2019-05-10T23:53:17.364Z,91.93
2019-05-10T23:55:58.030Z,91.82
2019-05-10T23:58:27.326Z,92.94
